EKAT weather

Anholt Airport
Anholt, Central Jutland, Denmark

Public forecast

Using degrees Celsius for public forecast. Weather courtesy of forecast.io.

METAR (pilot weather report)

Closest report is Aarhus Airport, 39.2 nm (72.6 km) SW. Retrieved 2019/05/22 05:20 UTC (0 seconds ago):

EKAH 220520Z AUTO 28008KT 2800NDV +DZ BR BKN003/// 12/12 Q1010

TAF (pilot weather forecast)

Forecast is more than 12 hours old.

Closest forecast is Aarhus Airport, 39.2 nm (72.6 km) SW. Retrieved 2019/05/21 00:18 UTC (1 day ago):

TAF TAF EKAH 212308Z 2200/2224 30012KT 6000 -RA BKN005 TEMPO 2200/2213 2500 RA BR BKN003 SCT040CB TEMPO 2213/2215 BKN012 BECMG 2215/2217 BKN020 TEMPO 2222/2224 3500 BR BKN007